createdAt,value
2019-06-07T00:00:47.650Z,7.30
2019-06-07T00:03:24.496Z,7.13
2019-06-07T00:05:43.807Z,7.30
2019-06-07T00:08:21.383Z,8.20
2019-06-07T00:10:41.036Z,7.20
2019-06-07T00:13:09.562Z,9.20
2019-06-07T00:15:56.595Z,8.67
2019-06-07T00:18:25.938Z,8.37
2019-06-07T00:20:52.609Z,8.13
2019-06-07T00:23:22.173Z,7.63
2019-06-07T00:25:48.717Z,7.87
2019-06-07T00:28:17.374Z,7.93
2019-06-07T00:30:51.585Z,8.30
2019-06-07T00:33:18.442Z,8.37
2019-06-07T00:35:42.957Z,8.90
2019-06-07T00:38:10.107Z,8.00
2019-06-07T00:40:37.252Z,8.60
2019-06-07T00:43:04.411Z,8.83
2019-06-07T00:45:31.465Z,8.30
2019-06-07T00:47:58.764Z,8.83
2019-06-07T00:50:25.924Z,9.07
2019-06-07T00:53:14.707Z,8.83
2019-06-07T00:55:27.134Z,9.67
2019-06-07T00:57:51.273Z,9.73
2019-06-07T01:00:24.931Z,9.03
2019-06-07T01:02:49.484Z,8.43
2019-06-07T01:05:21.995Z,9.27
2019-06-07T01:07:45.695Z,9.07
2019-06-07T01:10:19.180Z,8.97
2019-06-07T01:12:43.909Z,10.30
2019-06-07T01:15:11.134Z,8.63
2019-06-07T01:17:50.176Z,9.47
2019-06-07T01:20:07.644Z,10.10
2019-06-07T01:22:34.784Z,9.40
2019-06-07T01:25:02.070Z,9.87
2019-06-07T01:27:29.114Z,9.93
2019-06-07T01:29:56.157Z,9.60
2019-06-07T01:32:24.650Z,8.77
2019-06-07T01:34:52.186Z,8.80
2019-06-07T01:37:20.132Z,8.20
2019-06-07T01:40:08.130Z,9.50
2019-06-07T01:42:36.389Z,10.53
2019-06-07T01:45:04.322Z,10.17
2019-06-07T01:47:32.676Z,9.77
2019-06-07T01:49:59.725Z,10.87
2019-06-07T01:52:26.827Z,9.10
2019-06-07T01:54:58.757Z,9.63
2019-06-07T01:57:38.240Z,10.00
2019-06-07T01:59:51.826Z,10.37
2019-06-07T02:02:20.161Z,11.03
2019-06-07T02:05:21.471Z,10.60
2019-06-07T02:07:48.835Z,11.47
2019-06-07T02:10:16.204Z,11.43
2019-06-07T02:12:43.817Z,11.17
2019-06-07T02:15:11.596Z,12.47
2019-06-07T02:17:38.664Z,12.03
2019-06-07T02:20:06.850Z,12.60
2019-06-07T02:22:34.197Z,12.40
2019-06-07T02:25:37.300Z,12.30
2019-06-07T02:27:32.782Z,14.03
2019-06-07T02:29:59.768Z,11.87
2019-06-07T02:32:29.720Z,13.00
2019-06-07T02:34:55.772Z,13.40
2019-06-07T02:37:24.865Z,13.13
2019-06-07T02:39:51.788Z,12.90
2019-06-07T02:42:18.949Z,13.27
2019-06-07T02:44:45.997Z,13.00
2019-06-07T02:47:13.046Z,12.77
2019-06-07T02:49:41.957Z,13.27
2019-06-07T02:52:09.168Z,13.20
2019-06-07T02:54:40.514Z,13.13
2019-06-07T02:57:06.287Z,12.10
2019-06-07T02:59:54.923Z,13.00
2019-06-07T03:02:02.442Z,12.47
2019-06-07T03:04:36.801Z,13.20
2019-06-07T03:07:00.740Z,11.70
2019-06-07T03:09:30.917Z,12.93
2019-06-07T03:12:00.660Z,14.23
2019-06-07T03:14:33.906Z,13.47
2019-06-07T03:17:21.044Z,13.20
2019-06-07T03:19:51.456Z,13.50
2019-06-07T03:22:18.600Z,13.60
2019-06-07T03:24:45.635Z,13.83
2019-06-07T03:29:41.676Z,11.67
2019-06-07T03:32:08.732Z,12.90
2019-06-07T03:34:42.761Z,13.80
2019-06-07T03:37:04.740Z,12.60
2019-06-07T03:39:33.558Z,13.37
2019-06-07T03:42:06.370Z,13.20
2019-06-07T03:44:35.089Z,13.50
2019-06-07T03:46:59.851Z,13.37
2019-06-07T03:49:27.919Z,14.47
2019-06-07T03:51:56.057Z,13.80
2019-06-07T03:54:23.109Z,13.83
2019-06-07T03:56:50.147Z,14.30
2019-06-07T03:59:17.197Z,13.97
2019-06-07T04:01:44.244Z,15.40
2019-06-07T04:04:11.299Z,14.67
2019-06-07T04:06:41.953Z,14.40
2019-06-07T04:09:07.319Z,16.10
2019-06-07T04:11:35.132Z,14.97
2019-06-07T04:14:05.340Z,14.17
2019-06-07T04:16:36.774Z,13.73
2019-06-07T04:19:05.259Z,14.33
2019-06-07T04:21:35.103Z,13.83
2019-06-07T04:24:05.384Z,13.50
2019-06-07T04:26:37.458Z,13.83
2019-06-07T04:29:32.255Z,13.00
2019-06-07T04:31:41.973Z,12.97
2019-06-07T04:34:08.146Z,12.77
2019-06-07T04:36:52.740Z,12.87
2019-06-07T04:39:09.584Z,12.40
2019-06-07T04:41:42.160Z,13.23
2019-06-07T04:44:12.332Z,13.10
2019-06-07T04:46:43.988Z,12.60
2019-06-07T04:49:15.040Z,13.00
2019-06-07T04:51:44.992Z,12.53
2019-06-07T04:54:14.399Z,12.00
2019-06-07T04:56:44.709Z,12.83
2019-06-07T05:00:00.284Z,11.20
2019-06-07T05:01:45.504Z,11.13
2019-06-07T05:04:14.464Z,10.93
2019-06-07T05:06:43.451Z,9.57
2019-06-07T05:09:12.515Z,10.30
2019-06-07T05:11:44.751Z,9.40
2019-06-07T05:14:12.365Z,10.13
2019-06-07T05:16:44.095Z,10.10
2019-06-07T05:19:12.216Z,10.13
2019-06-07T05:21:59.884Z,10.03
2019-06-07T05:24:12.040Z,10.30
2019-06-07T05:26:42.802Z,10.33
2019-06-07T05:29:11.895Z,9.87
2019-06-07T05:31:45.135Z,9.40
2019-06-07T05:34:13.029Z,9.40
2019-06-07T05:36:45.030Z,9.90
2019-06-07T05:39:14.101Z,9.73
2019-06-07T05:41:44.422Z,9.57
2019-06-07T05:44:22.789Z,9.33
2019-06-07T05:46:51.736Z,8.87
2019-06-07T05:49:20.791Z,9.37
2019-06-07T05:51:49.767Z,9.03
2019-06-07T05:54:18.968Z,9.37
2019-06-07T05:56:47.924Z,8.90
2019-06-07T05:59:16.914Z,9.30
2019-06-07T06:02:22.488Z,9.67
2019-06-07T06:04:49.705Z,10.33
2019-06-07T06:07:19.176Z,10.00
2019-06-07T06:09:48.500Z,9.77
2019-06-07T06:12:33.854Z,10.03
2019-06-07T06:14:48.407Z,10.40
2019-06-07T06:17:17.367Z,10.50
2019-06-07T06:19:50.401Z,10.50
2019-06-07T06:22:17.175Z,10.87
2019-06-07T06:25:17.699Z,10.90
2019-06-07T06:27:55.673Z,10.40
2019-06-07T06:29:50.322Z,10.70
2019-06-07T06:34:53.653Z,10.30
2019-06-07T06:37:21.151Z,10.80
2019-06-07T06:39:50.324Z,10.50
2019-06-07T06:42:19.697Z,10.57
2019-06-07T06:44:53.635Z,10.37
2019-06-07T06:47:19.623Z,10.67
2019-06-07T06:49:53.961Z,9.90
2019-06-07T06:52:20.578Z,9.90
2019-06-07T06:54:59.304Z,10.53
2019-06-07T06:57:20.601Z,10.47
2019-06-07T06:59:50.433Z,9.67
2019-06-07T07:02:16.407Z,10.50
2019-06-07T07:04:45.275Z,10.57
2019-06-07T07:07:12.832Z,10.03
2019-06-07T07:09:43.252Z,11.47
2019-06-07T07:12:12.766Z,9.70
2019-06-07T07:14:37.812Z,9.47
2019-06-07T07:17:04.998Z,10.33
2019-06-07T07:19:32.157Z,10.40
2019-06-07T07:21:59.340Z,9.70
2019-06-07T07:24:26.619Z,9.97
2019-06-07T07:26:57.865Z,10.40
2019-06-07T07:29:22.817Z,10.17
2019-06-07T07:31:53.482Z,10.23
2019-06-07T07:34:33.862Z,10.13
2019-06-07T07:36:51.019Z,9.43
2019-06-07T07:39:17.243Z,9.50
2019-06-07T07:42:10.966Z,8.80
2019-06-07T07:44:13.640Z,8.67
2019-06-07T07:46:40.976Z,8.70
2019-06-07T07:49:08.045Z,9.13
2019-06-07T07:51:35.111Z,9.03
2019-06-07T07:54:10.569Z,8.43
2019-06-07T07:56:31.161Z,8.60
2019-06-07T07:59:01.659Z,8.50
2019-06-07T08:01:27.308Z,8.60
2019-06-07T08:03:56.327Z,8.50
2019-06-07T08:06:23.832Z,7.73
2019-06-07T08:08:51.327Z,8.43
2019-06-07T08:11:39.012Z,7.33
2019-06-07T08:14:06.172Z,7.00
2019-06-07T08:16:33.491Z,6.67
2019-06-07T08:19:03.865Z,7.23
2019-06-07T08:21:29.765Z,7.30
2019-06-07T08:24:00.658Z,6.67
2019-06-07T08:26:25.817Z,7.00
2019-06-07T08:28:56.360Z,6.57
2019-06-07T08:31:21.889Z,6.33
2019-06-07T08:33:50.171Z,6.07
2019-06-07T08:36:22.011Z,6.67
2019-06-07T08:38:50.882Z,6.17
2019-06-07T08:41:16.299Z,5.83
2019-06-07T08:43:43.372Z,6.30
2019-06-07T08:46:10.449Z,5.63
2019-06-07T08:48:37.501Z,6.00
2019-06-07T08:51:08.271Z,5.50
2019-06-07T08:53:33.756Z,6.07
2019-06-07T08:56:06.940Z,4.87
2019-06-07T08:58:29.816Z,5.77
2019-06-07T09:01:03.591Z,5.47
2019-06-07T09:03:25.873Z,5.30
2019-06-07T09:05:54.195Z,5.90
2019-06-07T09:08:29.764Z,6.23
2019-06-07T09:10:54.941Z,6.13
2019-06-07T09:13:20.572Z,5.57
2019-06-07T09:16:20.720Z,7.07
2019-06-07T09:18:47.796Z,7.33
2019-06-07T09:21:14.959Z,7.50
2019-06-07T09:23:42.113Z,7.30
2019-06-07T09:26:16.599Z,6.30
2019-06-07T09:28:38.912Z,7.37
2019-06-07T09:31:09.881Z,7.00
2019-06-07T09:33:35.068Z,6.90
2019-06-07T09:36:07.938Z,7.10
2019-06-07T09:38:31.513Z,5.90
2019-06-07T09:41:00.473Z,7.00
2019-06-07T09:45:58.237Z,7.43
2019-06-07T09:49:08.995Z,7.23
2019-06-07T09:50:54.676Z,7.53
2019-06-07T09:53:23.414Z,7.30
2019-06-07T09:55:50.807Z,7.30
2019-06-07T09:58:50.458Z,6.80
2019-06-07T10:00:46.857Z,6.80
2019-06-07T10:03:21.247Z,6.43
2019-06-07T10:05:43.062Z,5.63
2019-06-07T10:08:54.727Z,7.40
2019-06-07T10:10:42.151Z,6.30
2019-06-07T10:13:08.941Z,6.03
2019-06-07T10:15:37.321Z,6.00
2019-06-07T10:18:04.880Z,6.10
2019-06-07T10:20:32.256Z,5.63
2019-06-07T10:22:59.612Z,5.33
2019-06-07T10:25:27.129Z,6.60
2019-06-07T10:27:54.795Z,5.57
2019-06-07T10:30:24.790Z,5.83
2019-06-07T10:32:52.504Z,5.27
2019-06-07T10:35:19.683Z,4.90
2019-06-07T10:37:46.724Z,6.70
2019-06-07T10:40:13.989Z,6.87
2019-06-07T10:42:41.045Z,6.53
2019-06-07T10:45:10.387Z,5.47
2019-06-07T10:47:37.272Z,5.77
2019-06-07T10:50:05.979Z,5.10
2019-06-07T10:52:33.468Z,5.30
2019-06-07T10:55:00.511Z,4.60
2019-06-07T10:57:27.562Z,5.00
2019-06-07T10:59:54.648Z,5.30
2019-06-07T11:02:21.739Z,5.10
2019-06-07T11:04:48.821Z,5.13
2019-06-07T11:07:15.976Z,4.90
2019-06-07T11:09:43.427Z,4.97
2019-06-07T11:12:10.851Z,5.00
2019-06-07T11:14:38.049Z,4.00
2019-06-07T11:17:05.280Z,4.10
2019-06-07T11:19:32.424Z,4.87
2019-06-07T11:21:59.496Z,4.30
2019-06-07T11:24:26.556Z,4.77
2019-06-07T11:26:53.839Z,4.77
2019-06-07T11:29:20.992Z,3.80
2019-06-07T11:31:48.072Z,3.77
2019-06-07T11:34:15.490Z,4.40
2019-06-07T11:36:43.563Z,4.60
2019-06-07T11:39:11.175Z,4.20
2019-06-07T11:41:38.607Z,4.20
2019-06-07T11:44:06.701Z,4.03
2019-06-07T11:46:34.376Z,4.10
2019-06-07T11:49:01.453Z,4.63
2019-06-07T11:51:28.702Z,4.60
2019-06-07T11:53:55.768Z,4.37
2019-06-07T11:56:22.848Z,5.07
2019-06-07T11:58:50.012Z,3.80
2019-06-07T12:01:18.693Z,3.00
2019-06-07T12:03:46.072Z,3.73
2019-06-07T12:06:14.588Z,3.70
2019-06-07T12:08:42.215Z,3.57
2019-06-07T12:11:10.141Z,3.13
2019-06-07T12:13:37.251Z,3.27
2019-06-07T12:16:04.560Z,3.00
2019-06-07T12:18:31.605Z,2.73
2019-06-07T12:20:58.669Z,3.33
2019-06-07T12:23:25.833Z,3.03
2019-06-07T12:25:52.890Z,3.10
2019-06-07T12:28:21.033Z,3.40
2019-06-07T12:30:48.251Z,3.27
2019-06-07T12:33:15.527Z,3.10
2019-06-07T12:35:42.938Z,2.97
2019-06-07T12:38:10.012Z,3.10
2019-06-07T12:40:37.067Z,3.10
2019-06-07T12:43:04.153Z,3.20
2019-06-07T12:45:44.536Z,3.50
2019-06-07T12:48:00.303Z,2.97
2019-06-07T12:50:41.624Z,3.23
2019-06-07T12:52:56.460Z,2.97
2019-06-07T12:55:24.849Z,3.20
2019-06-07T12:57:52.125Z,2.77
2019-06-07T13:00:20.318Z,2.97
2019-06-07T13:02:47.506Z,2.97
2019-06-07T13:05:15.321Z,3.10
2019-06-07T13:07:42.772Z,2.53
2019-06-07T13:10:11.765Z,2.20
2019-06-07T13:12:39.130Z,2.30
2019-06-07T13:15:07.450Z,2.20
2019-06-07T13:17:34.504Z,2.13
2019-06-07T13:20:01.748Z,2.03
2019-06-07T13:22:28.853Z,1.83
2019-06-07T13:24:59.354Z,1.97
2019-06-07T13:27:24.891Z,1.87
2019-06-07T13:29:52.408Z,2.10
2019-06-07T13:32:19.601Z,2.00
2019-06-07T13:34:47.300Z,2.00
2019-06-07T13:37:14.386Z,2.03
2019-06-07T13:39:41.451Z,2.10
2019-06-07T13:42:08.519Z,2.00
2019-06-07T13:44:35.909Z,2.13
2019-06-07T13:47:03.091Z,1.80
2019-06-07T13:49:30.149Z,2.13
2019-06-07T13:51:57.239Z,2.00
2019-06-07T13:54:24.786Z,2.10
2019-06-07T13:57:02.231Z,2.20
2019-06-07T13:59:22.296Z,2.30
2019-06-07T14:01:49.826Z,2.20
2019-06-07T14:04:16.892Z,2.03
2019-06-07T14:06:43.976Z,2.53
2019-06-07T14:09:11.160Z,2.50
2019-06-07T14:11:49.996Z,2.50
2019-06-07T14:14:07.196Z,2.33
2019-06-07T14:16:34.360Z,2.60
2019-06-07T14:19:01.453Z,2.90
2019-06-07T14:21:28.793Z,2.37
2019-06-07T14:23:57.075Z,2.27
2019-06-07T14:26:25.246Z,2.30
2019-06-07T14:28:52.430Z,2.30
2019-06-07T14:31:19.509Z,2.03
2019-06-07T14:33:46.665Z,2.23
2019-06-07T14:36:14.799Z,2.20
2019-06-07T14:38:41.856Z,2.10
2019-06-07T14:41:08.920Z,2.40
2019-06-07T14:43:36.014Z,2.53
2019-06-07T14:46:03.279Z,2.40
2019-06-07T14:48:30.451Z,2.53
2019-06-07T14:50:57.616Z,2.37
2019-06-07T14:53:24.709Z,2.33
2019-06-07T14:55:51.776Z,2.30
2019-06-07T14:58:18.867Z,2.30
2019-06-07T15:00:46.121Z,2.50
2019-06-07T15:03:13.201Z,2.80
2019-06-07T15:05:40.633Z,2.50
2019-06-07T15:08:07.852Z,2.23
2019-06-07T15:10:35.322Z,2.27
2019-06-07T15:13:02.917Z,2.30
2019-06-07T15:15:30.833Z,1.40
2019-06-07T15:17:58.151Z,1.60
2019-06-07T15:20:25.320Z,1.20
2019-06-07T15:22:52.409Z,1.27
2019-06-07T15:25:19.800Z,1.27
2019-06-07T15:27:46.871Z,1.20
2019-06-07T15:30:16.648Z,1.13
2019-06-07T15:32:43.873Z,0.90
2019-06-07T15:35:11.256Z,1.10
2019-06-07T15:37:39.371Z,1.20
2019-06-07T15:40:07.128Z,1.00
2019-06-07T15:42:49.095Z,1.03
2019-06-07T15:45:03.775Z,1.13
2019-06-07T15:47:31.855Z,1.00
2019-06-07T15:49:58.927Z,1.00
2019-06-07T15:52:26.015Z,1.00
2019-06-07T15:54:53.099Z,1.10
2019-06-07T15:57:20.149Z,1.00
2019-06-07T15:59:47.225Z,1.00
2019-06-07T16:02:14.307Z,1.10
2019-06-07T16:04:42.119Z,1.30
2019-06-07T16:07:09.470Z,1.20
2019-06-07T16:09:36.557Z,1.30
2019-06-07T16:12:03.728Z,1.20
2019-06-07T16:14:32.901Z,1.23
2019-06-07T16:17:00.159Z,1.40
2019-06-07T16:19:27.228Z,1.20
2019-06-07T16:21:54.321Z,1.10
2019-06-07T16:24:22.696Z,1.30
2019-06-07T16:26:49.856Z,1.30
2019-06-07T16:29:17.033Z,1.23
2019-06-07T16:31:45.087Z,1.17
2019-06-07T16:34:12.477Z,1.10
2019-06-07T16:36:40.378Z,1.10
2019-06-07T16:39:07.974Z,1.27
2019-06-07T16:41:36.510Z,1.10
2019-06-07T16:44:04.093Z,1.30
2019-06-07T16:46:31.645Z,1.30
2019-06-07T16:48:58.716Z,1.00
2019-06-07T16:51:25.792Z,1.20
2019-06-07T16:53:52.858Z,1.50
2019-06-07T16:56:19.944Z,1.37
2019-06-07T16:58:48.572Z,1.10
2019-06-07T17:01:16.108Z,1.10
2019-06-07T17:03:43.557Z,1.40
2019-06-07T17:06:10.774Z,1.10
2019-06-07T17:08:38.078Z,1.20
2019-06-07T17:11:05.132Z,1.10
2019-06-07T17:13:33.749Z,1.00
2019-06-07T17:16:01.295Z,1.20
2019-06-07T17:18:28.384Z,1.10
2019-06-07T17:20:55.445Z,1.20
2019-06-07T17:23:22.515Z,1.10
2019-06-07T17:25:49.813Z,1.13
2019-06-07T17:28:17.006Z,1.20
2019-06-07T17:30:44.171Z,1.30
2019-06-07T17:33:11.352Z,0.90
2019-06-07T17:35:40.051Z,0.90
2019-06-07T17:38:07.596Z,1.10
2019-06-07T17:40:34.772Z,1.10
2019-06-07T17:43:01.856Z,1.00
2019-06-07T17:45:28.928Z,0.90
2019-06-07T17:47:55.987Z,0.80
2019-06-07T17:50:23.228Z,1.23
2019-06-07T17:52:50.358Z,1.20
2019-06-07T17:55:17.627Z,1.00
2019-06-07T17:57:44.696Z,1.03
2019-06-07T18:00:27.968Z,0.90
2019-06-07T18:02:43.016Z,1.00
2019-06-07T18:05:10.588Z,1.00
2019-06-07T18:07:37.671Z,1.13
2019-06-07T18:10:06.081Z,1.20
2019-06-07T18:12:33.460Z,1.33
2019-06-07T18:15:00.528Z,1.20
2019-06-07T18:17:34.466Z,1.00
2019-06-07T18:19:56.581Z,1.10
2019-06-07T18:22:23.695Z,1.00
2019-06-07T18:24:50.981Z,1.03
2019-06-07T18:27:18.071Z,1.17
2019-06-07T18:29:46.437Z,1.00
2019-06-07T18:32:13.797Z,1.20
2019-06-07T18:34:40.925Z,1.10
2019-06-07T18:37:07.995Z,1.20
2019-06-07T18:39:35.051Z,1.03
2019-06-07T18:42:02.131Z,1.10
2019-06-07T18:44:29.596Z,1.00
2019-06-07T18:46:56.677Z,1.00
2019-06-07T18:49:23.760Z,0.97
2019-06-07T18:52:08.986Z,1.00
2019-06-07T18:54:36.056Z,1.03
2019-06-07T18:57:03.340Z,1.17
2019-06-07T18:59:30.513Z,1.00
2019-06-07T19:01:57.665Z,1.00
2019-06-07T19:04:24.744Z,1.00
2019-06-07T19:06:52.244Z,1.13
2019-06-07T19:09:19.428Z,1.30
2019-06-07T19:11:46.520Z,1.00
2019-06-07T19:14:13.588Z,1.10
2019-06-07T19:16:40.664Z,1.10
2019-06-07T19:19:07.720Z,0.97
2019-06-07T19:21:34.793Z,1.20
2019-06-07T19:24:01.900Z,1.07
2019-06-07T19:26:29.062Z,1.00
2019-06-07T19:28:56.812Z,1.20
2019-06-07T19:31:24.128Z,1.27
2019-06-07T19:33:51.213Z,1.13
2019-06-07T19:36:18.340Z,1.10
2019-06-07T19:38:45.480Z,1.00
2019-06-07T19:41:19.699Z,1.10
2019-06-07T19:43:41.795Z,1.10
2019-06-07T19:46:08.868Z,1.00
2019-06-07T19:48:36.180Z,1.10
2019-06-07T19:51:03.359Z,1.10
2019-06-07T19:53:30.434Z,1.30
2019-06-07T19:55:57.617Z,1.00
2019-06-07T19:58:24.712Z,1.20
2019-06-07T20:00:51.930Z,1.30
2019-06-07T20:03:19.239Z,1.30
2019-06-07T20:05:46.431Z,1.50
2019-06-07T20:08:13.484Z,1.10
2019-06-07T20:10:40.583Z,1.20
2019-06-07T20:13:07.664Z,1.10
2019-06-07T20:15:36.365Z,1.20
2019-06-07T20:18:03.566Z,1.20
2019-06-07T20:20:30.612Z,1.10
2019-06-07T20:22:59.121Z,1.13
2019-06-07T20:25:26.600Z,1.20
2019-06-07T20:27:53.677Z,1.17
2019-06-07T20:30:21.016Z,1.37
2019-06-07T20:32:49.111Z,1.30
2019-06-07T20:35:17.510Z,1.20
2019-06-07T20:37:44.575Z,1.30
2019-06-07T20:40:23.544Z,1.30
2019-06-07T20:42:40.961Z,1.23
2019-06-07T20:45:08.317Z,1.17
2019-06-07T20:47:36.510Z,1.00
2019-06-07T20:50:06.196Z,1.20
2019-06-07T20:52:33.751Z,1.30
2019-06-07T20:55:00.829Z,1.13
2019-06-07T20:57:29.091Z,1.20
2019-06-07T20:59:56.164Z,1.30
2019-06-07T21:02:23.593Z,1.00
2019-06-07T21:04:50.672Z,1.13
2019-06-07T21:07:17.728Z,1.63
2019-06-07T21:09:44.803Z,1.13
2019-06-07T21:12:11.881Z,1.30
2019-06-07T21:14:39.056Z,1.37
2019-06-07T21:17:06.251Z,1.10
2019-06-07T21:19:34.711Z,1.43
2019-06-07T21:22:02.382Z,1.10
2019-06-07T21:24:29.664Z,1.30
2019-06-07T21:26:56.740Z,1.37
2019-06-07T21:29:23.809Z,1.20
2019-06-07T21:31:50.877Z,1.20
2019-06-07T21:34:17.965Z,1.40
2019-06-07T21:36:45.036Z,1.20
2019-06-07T21:39:12.565Z,1.13
2019-06-07T21:41:39.856Z,1.27
2019-06-07T21:44:08.219Z,1.13
2019-06-07T21:46:35.562Z,1.10
2019-06-07T21:49:02.745Z,0.90
2019-06-07T21:51:29.800Z,1.17
2019-06-07T21:53:57.859Z,1.00
2019-06-07T21:56:24.920Z,1.40
2019-06-07T21:58:52.012Z,1.00
2019-06-07T22:01:27.017Z,1.00
2019-06-07T22:03:54.196Z,0.90
2019-06-07T22:06:21.273Z,1.30
2019-06-07T22:08:48.365Z,1.07
2019-06-07T22:11:16.545Z,1.30
2019-06-07T22:13:43.623Z,1.10
2019-06-07T22:16:42.783Z,0.97
2019-06-07T22:19:10.781Z,1.03
2019-06-07T22:21:38.024Z,1.00
2019-06-07T22:24:05.105Z,1.20
2019-06-07T22:26:32.217Z,1.30
2019-06-07T22:28:59.372Z,1.20
2019-06-07T22:31:26.429Z,1.00
2019-06-07T22:33:53.922Z,1.40
2019-06-07T22:36:20.981Z,1.00
2019-06-07T22:38:48.042Z,1.10
2019-06-07T22:41:15.890Z,1.23
2019-06-07T22:43:43.576Z,1.10
2019-06-07T22:46:10.964Z,1.07
2019-06-07T22:48:38.452Z,1.20
2019-06-07T22:51:09.044Z,1.20
2019-06-07T22:53:40.859Z,1.23
2019-06-07T22:56:16.068Z,1.20
2019-06-07T22:58:43.519Z,1.20
2019-06-07T23:01:10.608Z,1.30
2019-06-07T23:03:37.677Z,1.30
2019-06-07T23:06:04.749Z,1.30
2019-06-07T23:08:31.816Z,1.30
2019-06-07T23:10:58.889Z,1.30
2019-06-07T23:13:26.341Z,1.33
2019-06-07T23:15:53.512Z,1.17
2019-06-07T23:18:20.594Z,1.63
2019-06-07T23:20:47.656Z,1.07
2019-06-07T23:23:14.911Z,1.20
2019-06-07T23:25:42.172Z,1.13
2019-06-07T23:28:10.227Z,1.27
2019-06-07T23:30:37.503Z,1.23
2019-06-07T23:33:04.573Z,1.50
2019-06-07T23:35:31.628Z,1.37
2019-06-07T23:37:58.790Z,1.20
2019-06-07T23:40:25.859Z,1.30
2019-06-07T23:42:52.941Z,1.30
2019-06-07T23:45:20.034Z,1.70
2019-06-07T23:47:47.100Z,1.67
2019-06-07T23:50:15.718Z,1.40
2019-06-07T23:52:42.933Z,1.30
2019-06-07T23:55:11.663Z,1.30
2019-06-07T23:57:40.049Z,1.70
